sensor_id;sensor_type;location;lat;lon;timestamp;P1;durP1;ratioP1;P2;durP2;ratioP2
19760;SDS011;10039;42.632;23.408;2023-05-07T00:02:12;0.20;;;0.20;;
19760;SDS011;10039;42.632;23.408;2023-05-07T00:04:38;0.20;;;0.20;;
19760;SDS011;10039;42.632;23.408;2023-05-07T00:07:03;0.30;;;0.30;;
19760;SDS011;10039;42.632;23.408;2023-05-07T00:09:29;0.30;;;0.30;;
19760;SDS011;10039;42.632;23.408;2023-05-07T00:11:55;0.30;;;0.30;;
19760;SDS011;10039;42.632;23.408;2023-05-07T00:14:20;0.30;;;0.30;;
19760;SDS011;10039;42.632;23.408;2023-05-07T00:16:46;0.22;;;0.22;;
19760;SDS011;10039;42.632;23.408;2023-05-07T00:19:12;0.30;;;0.30;;
19760;SDS011;10039;42.632;23.408;2023-05-07T00:21:37;0.10;;;0.10;;
19760;SDS011;10039;42.632;23.408;2023-05-07T00:24:03;0.20;;;0.20;;
19760;SDS011;10039;42.632;23.408;2023-05-07T00:26:29;0.30;;;0.30;;
19760;SDS011;10039;42.632;23.408;2023-05-07T00:28:54;0.30;;;0.30;;
19760;SDS011;10039;42.632;23.408;2023-05-07T00:31:20;0.20;;;0.20;;
19760;SDS011;10039;42.632;23.408;2023-05-07T00:33:45;0.30;;;0.30;;
19760;SDS011;10039;42.632;23.408;2023-05-07T00:36:11;0.30;;;0.30;;
19760;SDS011;10039;42.632;23.408;2023-05-07T00:38:37;0.20;;;0.20;;
19760;SDS011;10039;42.632;23.408;2023-05-07T00:41:02;0.20;;;0.20;;
19760;SDS011;10039;42.632;23.408;2023-05-07T00:43:27;0.28;;;0.28;;
19760;SDS011;10039;42.632;23.408;2023-05-07T00:45:53;0.20;;;0.20;;
19760;SDS011;10039;42.632;23.408;2023-05-07T00:48:19;0.30;;;0.30;;
19760;SDS011;10039;42.632;23.408;2023-05-07T00:50:45;0.30;;;0.30;;
19760;SDS011;10039;42.632;23.408;2023-05-07T00:53:12;0.30;;;0.30;;
19760;SDS011;10039;42.632;23.408;2023-05-07T00:55:38;0.20;;;0.20;;
19760;SDS011;10039;42.632;23.408;2023-05-07T00:58:03;0.20;;;0.20;;
19760;SDS011;10039;42.632;23.408;2023-05-07T01:00:29;0.28;;;0.28;;
19760;SDS011;10039;42.632;23.408;2023-05-07T01:02:54;0.20;;;0.20;;
19760;SDS011;10039;42.632;23.408;2023-05-07T01:05:20;0.30;;;0.30;;
19760;SDS011;10039;42.632;23.408;2023-05-07T01:07:48;0.30;;;0.30;;
19760;SDS011;10039;42.632;23.408;2023-05-07T01:10:15;0.20;;;0.20;;
19760;SDS011;10039;42.632;23.408;2023-05-07T01:12:42;0.22;;;0.22;;
19760;SDS011;10039;42.632;23.408;2023-05-07T01:15:09;0.30;;;0.30;;
19760;SDS011;10039;42.632;23.408;2023-05-07T01:17:35;0.20;;;0.20;;
19760;SDS011;10039;42.632;23.408;2023-05-07T01:20:01;0.13;;;0.13;;
19760;SDS011;10039;42.632;23.408;2023-05-07T01:22:30;0.22;;;0.22;;
19760;SDS011;10039;42.632;23.408;2023-05-07T01:24:57;0.30;;;0.30;;
19760;SDS011;10039;42.632;23.408;2023-05-07T01:27:24;0.20;;;0.20;;
19760;SDS011;10039;42.632;23.408;2023-05-07T01:29:50;0.28;;;0.28;;
19760;SDS011;10039;42.632;23.408;2023-05-07T01:32:16;0.20;;;0.20;;
19760;SDS011;10039;42.632;23.408;2023-05-07T01:34:46;0.20;;;0.20;;
19760;SDS011;10039;42.632;23.408;2023-05-07T01:37:14;0.30;;;0.30;;
19760;SDS011;10039;42.632;23.408;2023-05-07T01:39:40;0.20;;;0.20;;
19760;SDS011;10039;42.632;23.408;2023-05-07T01:42:07;0.30;;;0.30;;
19760;SDS011;10039;42.632;23.408;2023-05-07T01:44:32;0.20;;;0.20;;
19760;SDS011;10039;42.632;23.408;2023-05-07T01:46:58;0.30;;;0.30;;
19760;SDS011;10039;42.632;23.408;2023-05-07T01:49:24;0.30;;;0.30;;
19760;SDS011;10039;42.632;23.408;2023-05-07T01:51:51;0.30;;;0.30;;
19760;SDS011;10039;42.632;23.408;2023-05-07T01:54:16;0.25;;;0.25;;
19760;SDS011;10039;42.632;23.408;2023-05-07T01:56:42;0.20;;;0.20;;
19760;SDS011;10039;42.632;23.408;2023-05-07T01:59:07;0.30;;;0.30;;
19760;SDS011;10039;42.632;23.408;2023-05-07T02:01:33;0.30;;;0.30;;
19760;SDS011;10039;42.632;23.408;2023-05-07T02:03:58;0.20;;;0.20;;
19760;SDS011;10039;42.632;23.408;2023-05-07T02:06:23;0.30;;;0.30;;
19760;SDS011;10039;42.632;23.408;2023-05-07T02:08:49;0.30;;;0.30;;
19760;SDS011;10039;42.632;23.408;2023-05-07T02:11:14;0.20;;;0.20;;
19760;SDS011;10039;42.632;23.408;2023-05-07T02:13:40;0.25;;;0.25;;
19760;SDS011;10039;42.632;23.408;2023-05-07T02:16:06;0.30;;;0.30;;
19760;SDS011;10039;42.632;23.408;2023-05-07T02:18:32;0.20;;;0.20;;
19760;SDS011;10039;42.632;23.408;2023-05-07T02:20:57;0.30;;;0.30;;
19760;SDS011;10039;42.632;23.408;2023-05-07T02:23:23;0.20;;;0.20;;
19760;SDS011;10039;42.632;23.408;2023-05-07T02:25:48;0.30;;;0.30;;
19760;SDS011;10039;42.632;23.408;2023-05-07T02:28:14;0.20;;;0.20;;
19760;SDS011;10039;42.632;23.408;2023-05-07T02:30:40;0.20;;;0.20;;
19760;SDS011;10039;42.632;23.408;2023-05-07T02:33:05;0.20;;;0.20;;
19760;SDS011;10039;42.632;23.408;2023-05-07T02:35:32;0.30;;;0.30;;
19760;SDS011;10039;42.632;23.408;2023-05-07T02:37:57;0.30;;;0.30;;
19760;SDS011;10039;42.632;23.408;2023-05-07T02:40:23;0.30;;;0.30;;
19760;SDS011;10039;42.632;23.408;2023-05-07T02:42:51;0.20;;;0.20;;
19760;SDS011;10039;42.632;23.408;2023-05-07T02:45:16;0.20;;;0.20;;
19760;SDS011;10039;42.632;23.408;2023-05-07T02:47:41;0.20;;;0.20;;
19760;SDS011;10039;42.632;23.408;2023-05-07T02:50:07;0.20;;;0.20;;
19760;SDS011;10039;42.632;23.408;2023-05-07T02:52:32;0.30;;;0.30;;
19760;SDS011;10039;42.632;23.408;2023-05-07T02:54:58;0.20;;;0.20;;
19760;SDS011;10039;42.632;23.408;2023-05-07T02:57:23;0.30;;;0.30;;
19760;SDS011;10039;42.632;23.408;2023-05-07T02:59:49;0.20;;;0.20;;
19760;SDS011;10039;42.632;23.408;2023-05-07T03:02:15;0.25;;;0.25;;
19760;SDS011;10039;42.632;23.408;2023-05-07T03:04:41;0.20;;;0.20;;
19760;SDS011;10039;42.632;23.408;2023-05-07T03:07:06;0.20;;;0.20;;
19760;SDS011;10039;42.632;23.408;2023-05-07T03:09:32;0.20;;;0.20;;
19760;SDS011;10039;42.632;23.408;2023-05-07T03:11:57;0.30;;;0.30;;
19760;SDS011;10039;42.632;23.408;2023-05-07T03:14:22;0.20;;;0.20;;
19760;SDS011;10039;42.632;23.408;2023-05-07T03:16:48;0.20;;;0.20;;
19760;SDS011;10039;42.632;23.408;2023-05-07T03:19:14;0.22;;;0.22;;
19760;SDS011;10039;42.632;23.408;2023-05-07T03:21:40;0.20;;;0.20;;
19760;SDS011;10039;42.632;23.408;2023-05-07T03:24:05;0.30;;;0.30;;
19760;SDS011;10039;42.632;23.408;2023-05-07T03:26:31;0.20;;;0.20;;
19760;SDS011;10039;42.632;23.408;2023-05-07T03:28:56;0.30;;;0.30;;
19760;SDS011;10039;42.632;23.408;2023-05-07T03:31:22;0.20;;;0.20;;
19760;SDS011;10039;42.632;23.408;2023-05-07T03:33:54;0.30;;;0.30;;
19760;SDS011;10039;42.632;23.408;2023-05-07T03:36:21;0.30;;;0.30;;
19760;SDS011;10039;42.632;23.408;2023-05-07T03:38:47;0.20;;;0.20;;
19760;SDS011;10039;42.632;23.408;2023-05-07T03:41:14;0.22;;;0.22;;
19760;SDS011;10039;42.632;23.408;2023-05-07T03:43:39;0.22;;;0.22;;
19760;SDS011;10039;42.632;23.408;2023-05-07T03:46:05;0.20;;;0.20;;
19760;SDS011;10039;42.632;23.408;2023-05-07T03:48:30;0.20;;;0.20;;
19760;SDS011;10039;42.632;23.408;2023-05-07T03:50:56;0.22;;;0.22;;
19760;SDS011;10039;42.632;23.408;2023-05-07T03:53:23;0.25;;;0.25;;
19760;SDS011;10039;42.632;23.408;2023-05-07T03:55:48;0.25;;;0.25;;
19760;SDS011;10039;42.632;23.408;2023-05-07T03:58:14;0.30;;;0.30;;
19760;SDS011;10039;42.632;23.408;2023-05-07T04:00:40;0.20;;;0.20;;
19760;SDS011;10039;42.632;23.408;2023-05-07T04:03:06;0.20;;;0.20;;
19760;SDS011;10039;42.632;23.408;2023-05-07T04:05:31;0.20;;;0.20;;
19760;SDS011;10039;42.632;23.408;2023-05-07T04:07:57;0.20;;;0.20;;
19760;SDS011;10039;42.632;23.408;2023-05-07T04:10:23;0.22;;;0.22;;
19760;SDS011;10039;42.632;23.408;2023-05-07T04:12:49;0.22;;;0.22;;
19760;SDS011;10039;42.632;23.408;2023-05-07T04:15:14;0.30;;;0.30;;
19760;SDS011;10039;42.632;23.408;2023-05-07T04:17:40;0.20;;;0.20;;
19760;SDS011;10039;42.632;23.408;2023-05-07T04:20:08;0.20;;;0.20;;
19760;SDS011;10039;42.632;23.408;2023-05-07T04:22:35;0.20;;;0.20;;
19760;SDS011;10039;42.632;23.408;2023-05-07T04:25:01;0.20;;;0.20;;
19760;SDS011;10039;42.632;23.408;2023-05-07T04:27:27;0.30;;;0.30;;
19760;SDS011;10039;42.632;23.408;2023-05-07T04:29:55;0.20;;;0.20;;
19760;SDS011;10039;42.632;23.408;2023-05-07T04:32:21;0.30;;;0.30;;
19760;SDS011;10039;42.632;23.408;2023-05-07T04:34:47;0.30;;;0.30;;
19760;SDS011;10039;42.632;23.408;2023-05-07T04:37:12;0.30;;;0.30;;
19760;SDS011;10039;42.632;23.408;2023-05-07T04:39:38;0.30;;;0.30;;
19760;SDS011;10039;42.632;23.408;2023-05-07T04:42:03;0.20;;;0.20;;
19760;SDS011;10039;42.632;23.408;2023-05-07T04:44:29;0.20;;;0.20;;
19760;SDS011;10039;42.632;23.408;2023-05-07T04:46:57;0.20;;;0.20;;
19760;SDS011;10039;42.632;23.408;2023-05-07T04:49:23;0.30;;;0.30;;
19760;SDS011;10039;42.632;23.408;2023-05-07T04:51:48;0.20;;;0.20;;
19760;SDS011;10039;42.632;23.408;2023-05-07T04:54:16;0.20;;;0.20;;
19760;SDS011;10039;42.632;23.408;2023-05-07T04:56:42;0.20;;;0.20;;
19760;SDS011;10039;42.632;23.408;2023-05-07T04:59:07;0.20;;;0.20;;
19760;SDS011;10039;42.632;23.408;2023-05-07T05:01:33;0.20;;;0.20;;
19760;SDS011;10039;42.632;23.408;2023-05-07T05:03:58;0.20;;;0.20;;
19760;SDS011;10039;42.632;23.408;2023-05-07T05:06:25;0.20;;;0.20;;
19760;SDS011;10039;42.632;23.408;2023-05-07T05:08:50;0.22;;;0.22;;
19760;SDS011;10039;42.632;23.408;2023-05-07T05:11:15;0.20;;;0.20;;
19760;SDS011;10039;42.632;23.408;2023-05-07T05:13:41;0.20;;;0.20;;
19760;SDS011;10039;42.632;23.408;2023-05-07T05:16:06;0.20;;;0.20;;
19760;SDS011;10039;42.632;23.408;2023-05-07T05:18:32;0.20;;;0.20;;
19760;SDS011;10039;42.632;23.408;2023-05-07T05:20:57;0.20;;;0.20;;
19760;SDS011;10039;42.632;23.408;2023-05-07T05:23:23;0.10;;;0.10;;
19760;SDS011;10039;42.632;23.408;2023-05-07T05:25:48;0.20;;;0.20;;
19760;SDS011;10039;42.632;23.408;2023-05-07T05:28:14;0.10;;;0.10;;
19760;SDS011;10039;42.632;23.408;2023-05-07T05:30:39;0.20;;;0.20;;
19760;SDS011;10039;42.632;23.408;2023-05-07T05:33:05;0.20;;;0.20;;
19760;SDS011;10039;42.632;23.408;2023-05-07T05:35:30;0.20;;;0.20;;
19760;SDS011;10039;42.632;23.408;2023-05-07T05:37:56;0.20;;;0.20;;
19760;SDS011;10039;42.632;23.408;2023-05-07T05:40:22;0.20;;;0.20;;
19760;SDS011;10039;42.632;23.408;2023-05-07T05:42:47;0.20;;;0.20;;
19760;SDS011;10039;42.632;23.408;2023-05-07T05:45:13;0.22;;;0.22;;
19760;SDS011;10039;42.632;23.408;2023-05-07T05:47:38;0.30;;;0.30;;
19760;SDS011;10039;42.632;23.408;2023-05-07T05:50:05;0.20;;;0.20;;
19760;SDS011;10039;42.632;23.408;2023-05-07T05:52:31;0.20;;;0.20;;
19760;SDS011;10039;42.632;23.408;2023-05-07T05:54:57;0.20;;;0.20;;
19760;SDS011;10039;42.632;23.408;2023-05-07T05:57:22;0.20;;;0.20;;
19760;SDS011;10039;42.632;23.408;2023-05-07T05:59:48;0.20;;;0.20;;
19760;SDS011;10039;42.632;23.408;2023-05-07T06:02:13;0.20;;;0.20;;
19760;SDS011;10039;42.632;23.408;2023-05-07T06:04:39;0.20;;;0.20;;
19760;SDS011;10039;42.632;23.408;2023-05-07T06:07:04;0.13;;;0.13;;
19760;SDS011;10039;42.632;23.408;2023-05-07T06:09:30;0.22;;;0.22;;
19760;SDS011;10039;42.632;23.408;2023-05-07T06:11:55;0.30;;;0.30;;
19760;SDS011;10039;42.632;23.408;2023-05-07T06:14:21;0.20;;;0.20;;
19760;SDS011;10039;42.632;23.408;2023-05-07T06:16:46;0.20;;;0.20;;
19760;SDS011;10039;42.632;23.408;2023-05-07T06:19:12;0.20;;;0.20;;
19760;SDS011;10039;42.632;23.408;2023-05-07T06:21:38;0.17;;;0.17;;
19760;SDS011;10039;42.632;23.408;2023-05-07T06:24:04;0.20;;;0.20;;
19760;SDS011;10039;42.632;23.408;2023-05-07T06:26:30;0.20;;;0.20;;
19760;SDS011;10039;42.632;23.408;2023-05-07T06:28:55;0.17;;;0.17;;
19760;SDS011;10039;42.632;23.408;2023-05-07T06:31:20;0.20;;;0.20;;
19760;SDS011;10039;42.632;23.408;2023-05-07T06:33:46;0.20;;;0.20;;
19760;SDS011;10039;42.632;23.408;2023-05-07T06:36:12;0.20;;;0.20;;
19760;SDS011;10039;42.632;23.408;2023-05-07T06:38:38;0.10;;;0.10;;
19760;SDS011;10039;42.632;23.408;2023-05-07T06:41:07;0.10;;;0.10;;
19760;SDS011;10039;42.632;23.408;2023-05-07T06:43:32;0.20;;;0.20;;
19760;SDS011;10039;42.632;23.408;2023-05-07T06:45:58;0.20;;;0.20;;
19760;SDS011;10039;42.632;23.408;2023-05-07T06:48:23;0.10;;;0.10;;
19760;SDS011;10039;42.632;23.408;2023-05-07T06:50:48;0.20;;;0.20;;
19760;SDS011;10039;42.632;23.408;2023-05-07T06:53:15;0.10;;;0.10;;
19760;SDS011;10039;42.632;23.408;2023-05-07T06:55:40;0.17;;;0.17;;
19760;SDS011;10039;42.632;23.408;2023-05-07T06:58:06;0.20;;;0.20;;
19760;SDS011;10039;42.632;23.408;2023-05-07T07:00:32;0.10;;;0.10;;
19760;SDS011;10039;42.632;23.408;2023-05-07T07:02:57;0.10;;;0.10;;
19760;SDS011;10039;42.632;23.408;2023-05-07T07:05:24;0.10;;;0.10;;
19760;SDS011;10039;42.632;23.408;2023-05-07T07:07:49;0.10;;;0.10;;
19760;SDS011;10039;42.632;23.408;2023-05-07T07:10:21;0.10;;;0.10;;
19760;SDS011;10039;42.632;23.408;2023-05-07T07:12:47;0.10;;;0.10;;
19760;SDS011;10039;42.632;23.408;2023-05-07T07:15:13;0.10;;;0.10;;
19760;SDS011;10039;42.632;23.408;2023-05-07T07:17:39;0.10;;;0.10;;
19760;SDS011;10039;42.632;23.408;2023-05-07T07:20:05;0.10;;;0.10;;
19760;SDS011;10039;42.632;23.408;2023-05-07T07:22:30;0.10;;;0.10;;
19760;SDS011;10039;42.632;23.408;2023-05-07T07:24:56;0.10;;;0.10;;
19760;SDS011;10039;42.632;23.408;2023-05-07T07:27:21;0.10;;;0.10;;
19760;SDS011;10039;42.632;23.408;2023-05-07T07:29:47;0.10;;;0.10;;
19760;SDS011;10039;42.632;23.408;2023-05-07T07:32:13;0.10;;;0.10;;
19760;SDS011;10039;42.632;23.408;2023-05-07T07:34:38;0.10;;;0.10;;
19760;SDS011;10039;42.632;23.408;2023-05-07T07:37:04;0.20;;;0.20;;
19760;SDS011;10039;42.632;23.408;2023-05-07T07:39:34;0.10;;;0.10;;
19760;SDS011;10039;42.632;23.408;2023-05-07T07:42:00;0.10;;;0.10;;
19760;SDS011;10039;42.632;23.408;2023-05-07T07:44:25;0.10;;;0.10;;
19760;SDS011;10039;42.632;23.408;2023-05-07T07:46:52;0.10;;;0.10;;
19760;SDS011;10039;42.632;23.408;2023-05-07T07:49:17;0.10;;;0.10;;
19760;SDS011;10039;42.632;23.408;2023-05-07T07:51:43;0.10;;;0.10;;
19760;SDS011;10039;42.632;23.408;2023-05-07T07:54:08;0.10;;;0.10;;
19760;SDS011;10039;42.632;23.408;2023-05-07T07:56:36;0.10;;;0.10;;
19760;SDS011;10039;42.632;23.408;2023-05-07T07:59:05;0.10;;;0.10;;
19760;SDS011;10039;42.632;23.408;2023-05-07T08:01:31;0.10;;;0.10;;
19760;SDS011;10039;42.632;23.408;2023-05-07T08:03:56;0.10;;;0.10;;
19760;SDS011;10039;42.632;23.408;2023-05-07T08:06:25;0.00;;;0.00;;
19760;SDS011;10039;42.632;23.408;2023-05-07T08:08:51;0.03;;;0.03;;
19760;SDS011;10039;42.632;23.408;2023-05-07T08:11:17;0.10;;;0.10;;
19760;SDS011;10039;42.632;23.408;2023-05-07T08:13:42;0.10;;;0.10;;
19760;SDS011;10039;42.632;23.408;2023-05-07T08:16:08;0.00;;;0.00;;
19760;SDS011;10039;42.632;23.408;2023-05-07T08:18:34;0.10;;;0.10;;
19760;SDS011;10039;42.632;23.408;2023-05-07T08:21:00;0.00;;;0.00;;
19760;SDS011;10039;42.632;23.408;2023-05-07T08:23:26;0.10;;;0.10;;
19760;SDS011;10039;42.632;23.408;2023-05-07T08:25:51;0.08;;;0.08;;
19760;SDS011;10039;42.632;23.408;2023-05-07T08:28:17;0.10;;;0.10;;
19760;SDS011;10039;42.632;23.408;2023-05-07T08:30:42;0.00;;;0.00;;
19760;SDS011;10039;42.632;23.408;2023-05-07T08:33:08;0.03;;;0.03;;
19760;SDS011;10039;42.632;23.408;2023-05-07T08:35:34;0.00;;;0.00;;
19760;SDS011;10039;42.632;23.408;2023-05-07T08:38:00;0.10;;;0.10;;
19760;SDS011;10039;42.632;23.408;2023-05-07T08:40:26;0.00;;;0.00;;
19760;SDS011;10039;42.632;23.408;2023-05-07T08:42:52;0.00;;;0.00;;
19760;SDS011;10039;42.632;23.408;2023-05-07T08:45:19;0.00;;;0.00;;
19760;SDS011;10039;42.632;23.408;2023-05-07T08:47:52;0.00;;;0.00;;
19760;SDS011;10039;42.632;23.408;2023-05-07T08:50:23;0.00;;;0.00;;
19760;SDS011;10039;42.632;23.408;2023-05-07T08:52:49;0.10;;;0.10;;
19760;SDS011;10039;42.632;23.408;2023-05-07T08:55:14;0.00;;;0.00;;
19760;SDS011;10039;42.632;23.408;2023-05-07T08:57:40;0.00;;;0.00;;
19760;SDS011;10039;42.632;23.408;2023-05-07T09:00:06;0.10;;;0.10;;
19760;SDS011;10039;42.632;23.408;2023-05-07T09:02:32;0.10;;;0.10;;
19760;SDS011;10039;42.632;23.408;2023-05-07T09:04:59;0.00;;;0.00;;
19760;SDS011;10039;42.632;23.408;2023-05-07T09:07:25;0.08;;;0.08;;
19760;SDS011;10039;42.632;23.408;2023-05-07T09:09:51;0.00;;;0.00;;
19760;SDS011;10039;42.632;23.408;2023-05-07T09:12:17;0.00;;;0.00;;
19760;SDS011;10039;42.632;23.408;2023-05-07T09:14:43;0.00;;;0.00;;
19760;SDS011;10039;42.632;23.408;2023-05-07T09:17:10;0.00;;;0.00;;
19760;SDS011;10039;42.632;23.408;2023-05-07T09:19:36;0.03;;;0.03;;
19760;SDS011;10039;42.632;23.408;2023-05-07T09:22:02;0.10;;;0.10;;
19760;SDS011;10039;42.632;23.408;2023-05-07T09:24:29;0.10;;;0.10;;
19760;SDS011;10039;42.632;23.408;2023-05-07T09:26:58;0.00;;;0.00;;
19760;SDS011;10039;42.632;23.408;2023-05-07T09:29:25;0.00;;;0.00;;
19760;SDS011;10039;42.632;23.408;2023-05-07T09:31:50;0.00;;;0.00;;
19760;SDS011;10039;42.632;23.408;2023-05-07T09:34:16;0.10;;;0.10;;
19760;SDS011;10039;42.632;23.408;2023-05-07T09:36:41;0.03;;;0.03;;
19760;SDS011;10039;42.632;23.408;2023-05-07T09:39:07;0.00;;;0.00;;
19760;SDS011;10039;42.632;23.408;2023-05-07T09:41:32;0.00;;;0.00;;
19760;SDS011;10039;42.632;23.408;2023-05-07T09:44:07;0.00;;;0.00;;
19760;SDS011;10039;42.632;23.408;2023-05-07T09:46:34;0.00;;;0.00;;
19760;SDS011;10039;42.632;23.408;2023-05-07T09:49:02;0.00;;;0.00;;
19760;SDS011;10039;42.632;23.408;2023-05-07T09:51:34;0.00;;;0.00;;
19760;SDS011;10039;42.632;23.408;2023-05-07T09:54:06;0.00;;;0.00;;
19760;SDS011;10039;42.632;23.408;2023-05-07T09:56:32;0.10;;;0.10;;
19760;SDS011;10039;42.632;23.408;2023-05-07T09:59:01;0.00;;;0.00;;
19760;SDS011;10039;42.632;23.408;2023-05-07T10:01:29;0.00;;;0.00;;
19760;SDS011;10039;42.632;23.408;2023-05-07T10:03:57;0.00;;;0.00;;
19760;SDS011;10039;42.632;23.408;2023-05-07T10:06:24;0.05;;;0.05;;
19760;SDS011;10039;42.632;23.408;2023-05-07T10:08:50;0.00;;;0.00;;
19760;SDS011;10039;42.632;23.408;2023-05-07T10:11:18;0.00;;;0.00;;
19760;SDS011;10039;42.632;23.408;2023-05-07T10:13:43;0.00;;;0.00;;
19760;SDS011;10039;42.632;23.408;2023-05-07T10:16:11;0.00;;;0.00;;
19760;SDS011;10039;42.632;23.408;2023-05-07T10:18:37;0.10;;;0.10;;
19760;SDS011;10039;42.632;23.408;2023-05-07T10:21:07;0.00;;;0.00;;
19760;SDS011;10039;42.632;23.408;2023-05-07T10:23:39;0.05;;;0.05;;
19760;SDS011;10039;42.632;23.408;2023-05-07T10:26:06;0.10;;;0.10;;
19760;SDS011;10039;42.632;23.408;2023-05-07T10:28:34;0.00;;;0.00;;
19760;SDS011;10039;42.632;23.408;2023-05-07T10:33:47;0.00;;;0.00;;
19760;SDS011;10039;42.632;23.408;2023-05-07T10:36:15;0.00;;;0.00;;
19760;SDS011;10039;42.632;23.408;2023-05-07T10:38:41;0.00;;;0.00;;
19760;SDS011;10039;42.632;23.408;2023-05-07T10:41:07;0.00;;;0.00;;
19760;SDS011;10039;42.632;23.408;2023-05-07T10:43:42;0.10;;;0.10;;
19760;SDS011;10039;42.632;23.408;2023-05-07T10:46:16;0.00;;;0.00;;
19760;SDS011;10039;42.632;23.408;2023-05-07T10:49:06;0.10;;;0.10;;
19760;SDS011;10039;42.632;23.408;2023-05-07T10:51:31;0.00;;;0.00;;
19760;SDS011;10039;42.632;23.408;2023-05-07T10:56:36;0.00;;;0.00;;
19760;SDS011;10039;42.632;23.408;2023-05-07T11:01:52;0.00;;;0.00;;
19760;SDS011;10039;42.632;23.408;2023-05-07T11:04:21;0.05;;;0.05;;
19760;SDS011;10039;42.632;23.408;2023-05-07T11:15:15;0.03;;;0.03;;
19760;SDS011;10039;42.632;23.408;2023-05-07T11:18:02;0.00;;;0.00;;
19760;SDS011;10039;42.632;23.408;2023-05-07T11:26:00;0.00;;;0.00;;
19760;SDS011;10039;42.632;23.408;2023-05-07T11:28:30;0.05;;;0.05;;
19760;SDS011;10039;42.632;23.408;2023-05-07T11:31:00;0.10;;;0.10;;
19760;SDS011;10039;42.632;23.408;2023-05-07T11:33:26;0.00;;;0.00;;
19760;SDS011;10039;42.632;23.408;2023-05-07T11:35:54;0.10;;;0.10;;
19760;SDS011;10039;42.632;23.408;2023-05-07T11:38:21;0.00;;;0.00;;
19760;SDS011;10039;42.632;23.408;2023-05-07T11:40:53;0.00;;;0.00;;
19760;SDS011;10039;42.632;23.408;2023-05-07T11:43:22;0.00;;;0.00;;
19760;SDS011;10039;42.632;23.408;2023-05-07T11:45:48;0.00;;;0.00;;
19760;SDS011;10039;42.632;23.408;2023-05-07T11:48:16;0.10;;;0.10;;
19760;SDS011;10039;42.632;23.408;2023-05-07T11:50:51;0.00;;;0.00;;
19760;SDS011;10039;42.632;23.408;2023-05-07T11:53:18;0.00;;;0.00;;
19760;SDS011;10039;42.632;23.408;2023-05-07T11:55:45;0.00;;;0.00;;
19760;SDS011;10039;42.632;23.408;2023-05-07T11:58:12;0.00;;;0.00;;
19760;SDS011;10039;42.632;23.408;2023-05-07T12:00:48;0.00;;;0.00;;
19760;SDS011;10039;42.632;23.408;2023-05-07T12:03:17;0.00;;;0.00;;
19760;SDS011;10039;42.632;23.408;2023-05-07T12:05:46;0.00;;;0.00;;
19760;SDS011;10039;42.632;23.408;2023-05-07T12:08:16;0.00;;;0.00;;
19760;SDS011;10039;42.632;23.408;2023-05-07T12:10:45;0.05;;;0.05;;
19760;SDS011;10039;42.632;23.408;2023-05-07T12:13:19;0.00;;;0.00;;
19760;SDS011;10039;42.632;23.408;2023-05-07T12:15:46;0.00;;;0.00;;
19760;SDS011;10039;42.632;23.408;2023-05-07T12:18:15;0.00;;;0.00;;
19760;SDS011;10039;42.632;23.408;2023-05-07T12:20:41;0.05;;;0.05;;
19760;SDS011;10039;42.632;23.408;2023-05-07T12:23:07;0.00;;;0.00;;
19760;SDS011;10039;42.632;23.408;2023-05-07T12:25:37;0.10;;;0.10;;
19760;SDS011;10039;42.632;23.408;2023-05-07T12:28:04;0.10;;;0.10;;
19760;SDS011;10039;42.632;23.408;2023-05-07T12:30:31;0.00;;;0.00;;
19760;SDS011;10039;42.632;23.408;2023-05-07T12:33:05;0.10;;;0.10;;
19760;SDS011;10039;42.632;23.408;2023-05-07T12:35:39;0.00;;;0.00;;
19760;SDS011;10039;42.632;23.408;2023-05-07T12:38:09;0.00;;;0.00;;
19760;SDS011;10039;42.632;23.408;2023-05-07T12:40:41;0.00;;;0.00;;
19760;SDS011;10039;42.632;23.408;2023-05-07T12:43:14;0.00;;;0.00;;
19760;SDS011;10039;42.632;23.408;2023-05-07T12:45:43;0.00;;;0.00;;
19760;SDS011;10039;42.632;23.408;2023-05-07T12:48:10;0.10;;;0.10;;
19760;SDS011;10039;42.632;23.408;2023-05-07T12:50:36;0.00;;;0.00;;
19760;SDS011;10039;42.632;23.408;2023-05-07T12:53:04;0.00;;;0.00;;
19760;SDS011;10039;42.632;23.408;2023-05-07T12:55:32;0.00;;;0.00;;
19760;SDS011;10039;42.632;23.408;2023-05-07T12:58:06;0.05;;;0.05;;
19760;SDS011;10039;42.632;23.408;2023-05-07T13:00:38;0.10;;;0.10;;
19760;SDS011;10039;42.632;23.408;2023-05-07T13:03:03;0.00;;;0.00;;
19760;SDS011;10039;42.632;23.408;2023-05-07T13:05:29;0.00;;;0.00;;
19760;SDS011;10039;42.632;23.408;2023-05-07T13:07:55;0.00;;;0.00;;
19760;SDS011;10039;42.632;23.408;2023-05-07T13:10:22;0.00;;;0.00;;
19760;SDS011;10039;42.632;23.408;2023-05-07T13:12:48;0.00;;;0.00;;
19760;SDS011;10039;42.632;23.408;2023-05-07T13:15:14;0.10;;;0.10;;
19760;SDS011;10039;42.632;23.408;2023-05-07T13:17:40;0.00;;;0.00;;
19760;SDS011;10039;42.632;23.408;2023-05-07T13:20:05;0.00;;;0.00;;
19760;SDS011;10039;42.632;23.408;2023-05-07T13:22:40;0.00;;;0.00;;
19760;SDS011;10039;42.632;23.408;2023-05-07T13:25:06;0.00;;;0.00;;
19760;SDS011;10039;42.632;23.408;2023-05-07T13:27:32;0.03;;;0.03;;
19760;SDS011;10039;42.632;23.408;2023-05-07T13:30:00;0.00;;;0.00;;
19760;SDS011;10039;42.632;23.408;2023-05-07T13:32:26;0.00;;;0.00;;
19760;SDS011;10039;42.632;23.408;2023-05-07T13:34:51;0.00;;;0.00;;
19760;SDS011;10039;42.632;23.408;2023-05-07T13:37:16;0.00;;;0.00;;
19760;SDS011;10039;42.632;23.408;2023-05-07T13:39:42;0.00;;;0.00;;
19760;SDS011;10039;42.632;23.408;2023-05-07T13:42:08;0.03;;;0.03;;
19760;SDS011;10039;42.632;23.408;2023-05-07T13:44:33;0.00;;;0.00;;
19760;SDS011;10039;42.632;23.408;2023-05-07T13:46:58;0.00;;;0.00;;
19760;SDS011;10039;42.632;23.408;2023-05-07T13:49:24;0.00;;;0.00;;
19760;SDS011;10039;42.632;23.408;2023-05-07T13:51:49;0.00;;;0.00;;
19760;SDS011;10039;42.632;23.408;2023-05-07T13:54:15;0.00;;;0.00;;
19760;SDS011;10039;42.632;23.408;2023-05-07T13:56:41;0.00;;;0.00;;
19760;SDS011;10039;42.632;23.408;2023-05-07T13:59:06;0.00;;;0.00;;
19760;SDS011;10039;42.632;23.408;2023-05-07T14:01:32;0.00;;;0.00;;
19760;SDS011;10039;42.632;23.408;2023-05-07T14:03:57;0.00;;;0.00;;
19760;SDS011;10039;42.632;23.408;2023-05-07T14:06:24;0.00;;;0.00;;
19760;SDS011;10039;42.632;23.408;2023-05-07T14:08:50;0.00;;;0.00;;
19760;SDS011;10039;42.632;23.408;2023-05-07T14:11:15;0.00;;;0.00;;
19760;SDS011;10039;42.632;23.408;2023-05-07T14:13:41;0.00;;;0.00;;
19760;SDS011;10039;42.632;23.408;2023-05-07T14:16:06;0.00;;;0.00;;
19760;SDS011;10039;42.632;23.408;2023-05-07T14:18:31;0.00;;;0.00;;
19760;SDS011;10039;42.632;23.408;2023-05-07T14:20:58;0.00;;;0.00;;
19760;SDS011;10039;42.632;23.408;2023-05-07T14:23:24;0.10;;;0.10;;
19760;SDS011;10039;42.632;23.408;2023-05-07T14:25:51;0.00;;;0.00;;
19760;SDS011;10039;42.632;23.408;2023-05-07T14:28:21;0.00;;;0.00;;
19760;SDS011;10039;42.632;23.408;2023-05-07T14:30:46;0.00;;;0.00;;
19760;SDS011;10039;42.632;23.408;2023-05-07T14:33:12;0.00;;;0.00;;
19760;SDS011;10039;42.632;23.408;2023-05-07T14:35:37;0.00;;;0.00;;
19760;SDS011;10039;42.632;23.408;2023-05-07T14:38:02;0.03;;;0.03;;
19760;SDS011;10039;42.632;23.408;2023-05-07T14:40:28;0.00;;;0.00;;
19760;SDS011;10039;42.632;23.408;2023-05-07T14:42:53;0.00;;;0.00;;
19760;SDS011;10039;42.632;23.408;2023-05-07T14:45:20;0.00;;;0.00;;
19760;SDS011;10039;42.632;23.408;2023-05-07T14:47:46;0.10;;;0.10;;
19760;SDS011;10039;42.632;23.408;2023-05-07T14:50:11;0.10;;;0.10;;
19760;SDS011;10039;42.632;23.408;2023-05-07T14:52:36;0.00;;;0.00;;